createdAt,value
2022-10-07T00:01:09.257Z,102053.28
2022-10-07T00:03:36.472Z,102046.47
2022-10-07T00:06:11.007Z,102043.13
2022-10-07T00:08:39.417Z,102037.81
2022-10-07T00:11:14.253Z,102038.81
2022-10-07T00:13:44.636Z,102035.31
2022-10-07T00:16:14.198Z,102033.81
2022-10-07T00:18:42.098Z,102026.00
2022-10-07T00:21:12.200Z,102029.81
2022-10-07T00:23:40.218Z,102028.44
2022-10-07T00:26:09.070Z,102033.09
2022-10-07T00:28:37.069Z,102022.50
2022-10-07T00:31:15.693Z,102020.66
2022-10-07T00:33:43.171Z,102019.50
2022-10-07T00:36:23.864Z,102014.34
2022-10-07T00:38:53.249Z,102019.50
2022-10-07T00:41:23.771Z,102014.19
2022-10-07T00:43:50.677Z,102015.03
2022-10-07T00:46:39.317Z,102011.53
2022-10-07T00:49:14.030Z,102006.56
2022-10-07T00:51:42.575Z,102003.06
2022-10-07T00:54:13.634Z,102010.53
2022-10-07T00:56:42.702Z,102008.84
2022-10-07T00:59:13.395Z,101998.38
2022-10-07T01:01:42.274Z,102004.69
2022-10-07T01:04:15.180Z,102001.19
2022-10-07T01:06:43.108Z,102008.84
2022-10-07T01:09:11.727Z,102000.06
2022-10-07T01:12:21.463Z,102001.72
2022-10-07T01:15:03.323Z,101999.22
2022-10-07T01:17:59.360Z,101990.56
2022-10-07T01:20:35.051Z,101979.44
2022-10-07T01:23:02.417Z,101980.44
2022-10-07T01:25:34.627Z,101979.59
2022-10-07T01:28:08.461Z,101978.25
2022-10-07T01:30:41.513Z,101967.97
2022-10-07T01:33:16.660Z,101967.78
2022-10-07T01:35:47.380Z,101966.81
2022-10-07T01:38:18.924Z,101962.19
2022-10-07T01:40:57.913Z,101952.56
2022-10-07T01:43:25.146Z,101954.53
2022-10-07T01:45:54.829Z,101947.88
2022-10-07T01:48:21.687Z,101940.38
2022-10-07T01:50:51.451Z,101943.88
2022-10-07T01:53:58.782Z,101934.09
2022-10-07T01:56:50.330Z,101932.94
2022-10-07T01:59:39.178Z,101923.63
2022-10-07T02:02:36.732Z,101920.84
2022-10-07T02:05:09.407Z,101915.38
2022-10-07T02:07:52.091Z,101916.22
2022-10-07T02:10:33.141Z,101910.91
2022-10-07T02:13:32.574Z,101905.41
2022-10-07T02:16:24.703Z,101889.34
2022-10-07T02:18:52.668Z,101892.84
2022-10-07T02:21:25.547Z,101886.53
2022-10-07T02:23:54.270Z,101883.56
2022-10-07T02:26:23.266Z,101884.03
2022-10-07T02:28:52.864Z,101876.91
2022-10-07T02:31:25.828Z,101880.41
2022-10-07T02:33:54.680Z,101873.44
2022-10-07T02:36:35.368Z,101875.75
2022-10-07T02:39:03.018Z,101866.81
2022-10-07T02:41:40.479Z,101860.50
2022-10-07T02:44:19.115Z,101851.03
2022-10-07T02:47:09.673Z,101853.88
2022-10-07T02:49:41.010Z,101849.53
2022-10-07T02:52:12.032Z,101846.22
2022-10-07T02:54:44.155Z,101845.91
2022-10-07T02:57:14.015Z,101840.41
2022-10-07T02:59:41.712Z,101835.09
2022-10-07T03:02:20.584Z,101828.16
2022-10-07T03:04:48.716Z,101825.50
2022-10-07T03:07:16.709Z,101826.00
2022-10-07T03:09:43.754Z,101825.84
2022-10-07T03:12:10.497Z,101818.88
2022-10-07T03:14:37.400Z,101808.13
2022-10-07T03:17:04.286Z,101809.25
2022-10-07T03:19:31.174Z,101818.38
2022-10-07T03:21:57.927Z,101808.75
2022-10-07T03:24:24.765Z,101817.03
2022-10-07T03:26:51.522Z,101813.22
2022-10-07T03:29:18.867Z,101808.75
2022-10-07T03:31:46.210Z,101811.91
2022-10-07T03:34:13.014Z,101810.91
2022-10-07T03:36:39.814Z,101799.13
2022-10-07T03:39:06.542Z,101805.28
2022-10-07T03:41:33.547Z,101793.81
2022-10-07T03:44:00.310Z,101799.81
2022-10-07T03:46:27.235Z,101791.03
2022-10-07T03:48:54.352Z,101791.84
2022-10-07T03:51:21.227Z,101790.03
2022-10-07T03:53:48.917Z,101787.88
2022-10-07T03:56:15.798Z,101791.50
2022-10-07T03:58:42.549Z,101790.69
2022-10-07T04:01:11.596Z,101793.03
2022-10-07T04:03:38.351Z,101778.59
2022-10-07T04:06:05.504Z,101793.88
2022-10-07T04:08:33.626Z,101782.06
2022-10-07T04:11:02.356Z,101781.25
2022-10-07T04:13:29.265Z,101780.41
2022-10-07T04:15:56.477Z,101785.91
2022-10-07T04:18:24.505Z,101771.63
2022-10-07T04:20:51.344Z,101779.94
2022-10-07T04:23:18.864Z,101774.09
2022-10-07T04:25:47.134Z,101766.00
2022-10-07T04:28:23.137Z,101771.97
2022-10-07T04:30:51.731Z,101768.16
2022-10-07T04:33:19.509Z,101766.47
2022-10-07T04:35:46.330Z,101758.53
2022-10-07T04:38:16.078Z,101757.88
2022-10-07T04:40:45.342Z,101758.19
2022-10-07T04:43:20.520Z,101746.44
2022-10-07T04:45:49.048Z,101755.03
2022-10-07T04:48:18.856Z,101758.38
2022-10-07T04:50:46.301Z,101751.25
2022-10-07T04:53:14.789Z,101743.91
2022-10-07T04:55:44.194Z,101746.25
2022-10-07T04:58:11.170Z,101748.91
2022-10-07T05:00:47.162Z,101740.94
2022-10-07T05:03:15.719Z,101745.44
2022-10-07T05:05:44.221Z,101739.63
2022-10-07T05:08:11.702Z,101738.94
2022-10-07T05:10:40.114Z,101734.66
2022-10-07T05:13:15.904Z,101747.41
2022-10-07T05:15:54.771Z,101744.59
2022-10-07T05:18:23.294Z,101744.59
2022-10-07T05:20:51.382Z,101736.78
2022-10-07T05:23:25.652Z,101734.31
2022-10-07T05:26:05.180Z,101727.34
2022-10-07T05:28:32.248Z,101714.91
2022-10-07T05:31:11.031Z,101716.88
2022-10-07T05:33:38.794Z,101716.22
2022-10-07T05:36:07.164Z,101724.34
2022-10-07T05:38:34.418Z,101713.25
2022-10-07T05:41:03.096Z,101713.25
2022-10-07T05:43:32.507Z,101710.59
2022-10-07T05:46:01.534Z,101713.25
2022-10-07T05:48:29.960Z,101715.06
2022-10-07T05:50:59.929Z,101713.41
2022-10-07T05:53:30.931Z,101708.94
2022-10-07T05:55:57.973Z,101699.47
2022-10-07T05:58:24.815Z,101700.28
2022-10-07T06:01:01.005Z,101707.59
2022-10-07T06:03:30.838Z,101702.09
2022-10-07T06:05:59.637Z,101698.47
2022-10-07T06:08:27.251Z,101701.81
2022-10-07T06:11:12.411Z,101700.13
2022-10-07T06:13:39.251Z,101705.44
2022-10-07T06:16:09.226Z,101692.16
2022-10-07T06:18:37.197Z,101700.13
2022-10-07T06:21:04.861Z,101694.97
2022-10-07T06:23:32.565Z,101683.72
2022-10-07T06:26:10.633Z,101689.66
2022-10-07T06:28:40.205Z,101691.19
2022-10-07T06:31:10.181Z,101690.16
2022-10-07T06:33:37.407Z,101689.16
2022-10-07T06:36:12.474Z,101691.66
2022-10-07T06:38:47.587Z,101690.34
2022-10-07T06:41:15.114Z,101683.88
2022-10-07T06:43:41.921Z,101684.53
2022-10-07T06:46:13.380Z,101687.84
2022-10-07T06:48:41.797Z,101684.38
2022-10-07T06:51:12.797Z,101682.19
2022-10-07T06:53:39.592Z,101684.53
2022-10-07T06:56:06.738Z,101685.69
2022-10-07T06:58:34.112Z,101682.53
2022-10-07T07:01:01.069Z,101677.03
2022-10-07T07:03:29.148Z,101680.72
2022-10-07T07:05:56.618Z,101680.03
2022-10-07T07:08:29.265Z,101680.53
2022-10-07T07:10:56.337Z,101685.69
2022-10-07T07:13:23.169Z,101687.16
2022-10-07T07:15:58.942Z,101689.00
2022-10-07T07:18:26.349Z,101684.50
2022-10-07T07:20:53.275Z,101684.50
2022-10-07T07:23:20.115Z,101678.19
2022-10-07T07:25:46.936Z,101680.53
2022-10-07T07:28:15.921Z,101673.22
2022-10-07T07:30:43.154Z,101684.81
2022-10-07T07:33:10.156Z,101695.28
2022-10-07T07:35:41.566Z,101685.81
2022-10-07T07:38:09.201Z,101679.50
2022-10-07T07:40:37.738Z,101689.31
2022-10-07T07:43:05.834Z,101684.66
2022-10-07T07:45:36.865Z,101680.16
2022-10-07T07:48:04.382Z,101682.97
2022-10-07T07:50:31.132Z,101678.66
2022-10-07T07:53:00.297Z,101676.31
2022-10-07T07:55:27.086Z,101682.09
2022-10-07T07:57:53.871Z,101674.00
2022-10-07T08:00:20.727Z,101671.97
2022-10-07T08:02:47.769Z,101672.50
2022-10-07T08:05:14.585Z,101669.63
2022-10-07T08:07:42.156Z,101670.63
2022-10-07T08:10:09.359Z,101674.25
2022-10-07T08:12:36.334Z,101671.06
2022-10-07T08:15:03.219Z,101671.56
2022-10-07T08:17:29.987Z,101669.38
2022-10-07T08:19:56.758Z,101673.34
2022-10-07T08:22:23.574Z,101663.84
2022-10-07T08:24:50.541Z,101669.81
2022-10-07T08:27:17.384Z,101663.34
2022-10-07T08:29:44.125Z,101662.81
2022-10-07T08:32:10.940Z,101661.78
2022-10-07T08:34:37.805Z,101665.47
2022-10-07T08:37:04.949Z,101660.78
2022-10-07T08:39:34.510Z,101662.44
2022-10-07T08:42:18.745Z,101659.78
2022-10-07T08:44:48.578Z,101653.16
2022-10-07T08:47:25.198Z,101651.50
2022-10-07T08:50:20.078Z,101640.88
2022-10-07T08:52:51.236Z,101638.56
2022-10-07T08:55:24.454Z,101638.91
2022-10-07T08:58:26.645Z,101636.75
2022-10-07T09:01:26.856Z,101633.25
2022-10-07T09:04:34.860Z,101634.72
2022-10-07T09:07:08.320Z,101627.88
2022-10-07T09:09:44.846Z,101620.56
2022-10-07T09:12:23.469Z,101626.19
2022-10-07T09:14:55.876Z,101614.00
2022-10-07T09:17:48.634Z,101612.97
2022-10-07T09:20:20.158Z,101617.97
2022-10-07T09:22:57.420Z,101609.47
2022-10-07T09:25:29.914Z,101608.69
2022-10-07T09:27:57.371Z,101612.34
2022-10-07T09:30:25.621Z,101606.50
2022-10-07T09:32:54.694Z,101607.13
2022-10-07T09:35:29.860Z,101598.81
2022-10-07T09:38:08.451Z,101601.38
2022-10-07T09:40:59.524Z,101599.22
2022-10-07T09:43:27.774Z,101587.53
2022-10-07T09:45:56.342Z,101589.88
2022-10-07T09:48:29.146Z,101590.16
2022-10-07T09:51:16.999Z,101585.59
2022-10-07T09:54:03.150Z,101577.06
2022-10-07T09:56:39.611Z,101574.88
2022-10-07T09:59:18.488Z,101574.34
2022-10-07T10:01:56.953Z,101557.19
2022-10-07T10:04:32.612Z,101564.28
2022-10-07T10:07:06.435Z,101564.91
2022-10-07T10:09:49.067Z,101551.84
2022-10-07T10:12:20.185Z,101554.97
2022-10-07T10:14:51.935Z,101545.81
2022-10-07T10:17:43.303Z,101557.56
2022-10-07T10:20:27.741Z,101548.38
2022-10-07T10:22:55.352Z,101541.84
2022-10-07T10:26:06.478Z,101547.63
2022-10-07T10:28:51.331Z,101544.34
2022-10-07T10:31:55.517Z,101544.25
2022-10-07T10:34:45.648Z,101542.75
2022-10-07T10:37:26.597Z,101537.25
2022-10-07T10:40:19.132Z,101533.16
2022-10-07T10:43:41.808Z,101533.50
2022-10-07T10:46:17.985Z,101530.66
2022-10-07T10:48:58.159Z,101526.34
2022-10-07T10:51:43.762Z,101522.00
2022-10-07T10:54:25.004Z,101530.66
2022-10-07T10:57:12.295Z,101509.63
2022-10-07T11:00:07.067Z,101509.44
2022-10-07T11:02:47.134Z,101518.34
2022-10-07T11:05:18.187Z,101498.28
2022-10-07T11:08:04.716Z,101496.38
2022-10-07T11:10:40.896Z,101487.06
2022-10-07T11:13:13.748Z,101498.63
2022-10-07T11:15:47.825Z,101487.38
2022-10-07T11:18:29.066Z,101482.72
2022-10-07T11:21:03.822Z,101483.38
2022-10-07T11:23:41.571Z,101482.00
2022-10-07T11:26:32.383Z,101478.75
2022-10-07T11:29:11.624Z,101464.59
2022-10-07T11:31:42.744Z,101458.03
2022-10-07T11:34:16.848Z,101455.19
2022-10-07T11:36:43.758Z,101448.47
2022-10-07T11:39:10.875Z,101439.63
2022-10-07T11:41:51.142Z,101430.63
2022-10-07T11:44:45.305Z,101429.63
2022-10-07T11:47:19.012Z,101426.94
2022-10-07T11:50:05.238Z,101425.75
2022-10-07T11:52:38.248Z,101425.09
2022-10-07T11:55:12.227Z,101417.09
2022-10-07T11:57:43.996Z,101410.53
2022-10-07T12:00:33.040Z,101395.97
2022-10-07T12:03:18.145Z,101402.38
2022-10-07T12:05:50.984Z,101396.09
2022-10-07T12:08:36.874Z,101384.44
2022-10-07T12:11:32.727Z,101377.75
2022-10-07T12:14:33.341Z,101378.41
2022-10-07T12:17:18.843Z,101375.75
2022-10-07T12:19:45.786Z,101370.41
2022-10-07T12:22:18.117Z,101360.56
2022-10-07T12:24:47.262Z,101355.69
2022-10-07T12:27:25.581Z,101360.63
2022-10-07T12:29:59.993Z,101352.03
2022-10-07T12:32:46.453Z,101346.75
2022-10-07T12:35:35.054Z,101340.16
2022-10-07T12:38:11.329Z,101337.13
2022-10-07T12:40:38.717Z,101331.56
2022-10-07T12:43:18.243Z,101331.78
2022-10-07T12:45:45.354Z,101322.56
2022-10-07T12:48:20.964Z,101325.44
2022-10-07T12:50:51.130Z,101317.25
2022-10-07T12:53:19.548Z,101317.63
2022-10-07T12:55:52.657Z,101318.22
2022-10-07T12:59:12.243Z,101317.38
2022-10-07T13:02:26.356Z,101301.78
2022-10-07T13:05:26.667Z,101300.78
2022-10-07T13:08:42.036Z,101294.41
2022-10-07T13:11:47.000Z,101295.84
2022-10-07T13:14:33.674Z,101287.47
2022-10-07T13:17:41.802Z,101281.91
2022-10-07T13:20:14.945Z,101281.56
2022-10-07T13:22:47.967Z,101274.78
2022-10-07T13:25:19.941Z,101271.69
2022-10-07T13:27:56.146Z,101262.88
2022-10-07T13:30:57.204Z,101254.25
2022-10-07T13:33:30.702Z,101257.75
2022-10-07T13:36:21.989Z,101258.16
2022-10-07T13:38:53.729Z,101252.63
2022-10-07T13:41:27.661Z,101248.72
2022-10-07T13:44:03.969Z,101237.22
2022-10-07T13:46:34.492Z,101233.53
2022-10-07T13:49:02.714Z,101234.75
2022-10-07T13:51:34.940Z,101230.88
2022-10-07T13:54:05.052Z,101238.69
2022-10-07T13:56:40.373Z,101230.47
2022-10-07T13:59:16.133Z,101231.28
2022-10-07T14:01:43.313Z,101241.38
2022-10-07T14:04:20.133Z,101227.78
2022-10-07T14:06:57.725Z,101227.19
2022-10-07T14:09:36.546Z,101229.66
2022-10-07T14:12:34.540Z,101229.25
2022-10-07T14:15:06.510Z,101233.97
2022-10-07T14:17:41.590Z,101224.09
2022-10-07T14:20:22.361Z,101210.13
2022-10-07T14:22:56.427Z,101217.72
2022-10-07T14:25:29.752Z,101220.81
2022-10-07T14:28:19.388Z,101217.50
2022-10-07T14:31:25.826Z,101219.56
2022-10-07T14:34:23.529Z,101226.94
2022-10-07T14:37:17.528Z,101224.06
2022-10-07T14:39:48.008Z,101225.91
2022-10-07T14:42:25.519Z,101216.88
2022-10-07T14:44:55.129Z,101214.59
2022-10-07T14:47:28.356Z,101217.66
2022-10-07T14:50:08.550Z,101213.53
2022-10-07T14:53:00.046Z,101209.00
2022-10-07T14:55:29.703Z,101204.28
2022-10-07T14:57:56.390Z,101198.09
2022-10-07T15:00:27.949Z,101190.94
2022-10-07T15:02:57.962Z,101203.84
2022-10-07T15:05:26.583Z,101189.69
2022-10-07T15:07:53.465Z,101190.94
2022-10-07T15:10:23.452Z,101190.09
2022-10-07T15:12:50.437Z,101180.63
2022-10-07T15:15:18.465Z,101177.16
2022-10-07T15:17:45.567Z,101179.22
2022-10-07T15:20:15.215Z,101172.22
2022-10-07T15:22:43.430Z,101173.03
2022-10-07T15:25:12.325Z,101175.28
2022-10-07T15:27:39.220Z,101173.84
2022-10-07T15:30:07.414Z,101165.66
2022-10-07T15:32:34.565Z,101165.84
2022-10-07T15:35:01.797Z,101166.47
2022-10-07T15:37:28.855Z,101160.31
2022-10-07T15:39:55.855Z,101155.16
2022-10-07T15:42:26.321Z,101158.47
2022-10-07T15:44:53.787Z,101153.31
2022-10-07T15:47:21.057Z,101151.03
2022-10-07T15:49:49.224Z,101145.69
2022-10-07T15:52:16.484Z,101151.25
2022-10-07T15:54:45.298Z,101156.97
2022-10-07T15:57:12.727Z,101151.88
2022-10-07T15:59:39.655Z,101154.09
2022-10-07T16:02:09.357Z,101144.44
2022-10-07T16:04:41.305Z,101143.78
2022-10-07T16:07:11.484Z,101139.47
2022-10-07T16:09:39.289Z,101132.72
2022-10-07T16:12:07.043Z,101124.53
2022-10-07T16:14:33.855Z,101122.69
2022-10-07T16:17:00.840Z,101140.13
2022-10-07T16:19:35.983Z,101126.78
2022-10-07T16:22:02.977Z,101126.38
2022-10-07T16:24:34.808Z,101128.81
2022-10-07T16:27:02.116Z,101124.94
2022-10-07T16:29:49.425Z,101128.22
2022-10-07T16:32:16.692Z,101127.97
2022-10-07T16:34:44.651Z,101129.59
2022-10-07T16:37:13.041Z,101129.38
2022-10-07T16:39:39.935Z,101127.13
2022-10-07T16:42:06.891Z,101121.16
2022-10-07T16:44:33.714Z,101121.97
2022-10-07T16:47:01.395Z,101119.69
2022-10-07T16:49:30.506Z,101123.41
2022-10-07T16:51:58.111Z,101122.94
2022-10-07T16:54:25.570Z,101117.00
2022-10-07T16:56:53.240Z,101108.19
2022-10-07T16:59:35.716Z,101111.69
2022-10-07T17:02:02.796Z,101121.72
2022-10-07T17:04:29.964Z,101122.53
2022-10-07T17:06:56.899Z,101115.13
2022-10-07T17:09:30.932Z,101121.47
2022-10-07T17:12:01.489Z,101115.97
2022-10-07T17:14:31.762Z,101126.38
2022-10-07T17:16:59.410Z,101120.38
2022-10-07T17:19:29.301Z,101126.13
2022-10-07T17:21:59.696Z,101114.63
2022-10-07T17:24:27.145Z,101121.41
2022-10-07T17:26:54.193Z,101119.38
2022-10-07T17:29:34.827Z,101125.34
2022-10-07T17:32:03.112Z,101143.00
2022-10-07T17:34:30.037Z,101162.22
2022-10-07T17:36:58.990Z,101197.91
2022-10-07T17:39:33.212Z,101189.84
2022-10-07T17:42:00.000Z,101187.28
2022-10-07T17:44:27.029Z,101201.91
2022-10-07T17:46:55.761Z,101200.16
2022-10-07T17:49:29.528Z,101198.81
2022-10-07T17:51:57.539Z,101191.75
2022-10-07T17:54:24.575Z,101194.91
2022-10-07T17:56:51.443Z,101207.47
2022-10-07T17:59:18.490Z,101195.50
2022-10-07T18:01:45.405Z,101199.91
2022-10-07T18:04:15.955Z,101201.31
2022-10-07T18:06:46.968Z,101197.81
2022-10-07T18:09:15.642Z,101199.47
2022-10-07T18:12:00.865Z,101191.84
2022-10-07T18:14:51.129Z,101183.41
2022-10-07T18:17:20.827Z,101185.91
2022-10-07T18:19:47.951Z,101179.56
2022-10-07T18:22:14.744Z,101179.94
2022-10-07T18:24:41.663Z,101186.81
2022-10-07T18:27:08.598Z,101182.44
2022-10-07T18:29:38.338Z,101191.63
2022-10-07T18:32:08.749Z,101191.34
2022-10-07T18:34:35.688Z,101196.03
2022-10-07T18:37:02.579Z,101199.25
2022-10-07T18:39:32.087Z,101202.47
2022-10-07T18:41:59.577Z,101205.59
2022-10-07T18:44:26.914Z,101210.91
2022-10-07T18:46:54.052Z,101210.44
2022-10-07T18:49:32.193Z,101213.72
2022-10-07T18:51:59.038Z,101218.59
2022-10-07T18:54:25.987Z,101228.97
2022-10-07T18:56:53.150Z,101222.81
2022-10-07T18:59:20.459Z,101223.47
2022-10-07T19:01:50.652Z,101222.44
2022-10-07T19:04:18.172Z,101223.25
2022-10-07T19:06:46.403Z,101233.91
2022-10-07T19:09:35.870Z,101233.78
2022-10-07T19:12:02.677Z,101232.34
2022-10-07T19:14:31.410Z,101230.88
2022-10-07T19:16:58.292Z,101230.06
2022-10-07T19:19:34.568Z,101236.94
2022-10-07T19:22:01.506Z,101240.59
2022-10-07T19:24:47.185Z,101239.59
2022-10-07T19:27:14.449Z,101242.25
2022-10-07T19:29:41.190Z,101240.78
2022-10-07T19:32:08.447Z,101245.47
2022-10-07T19:34:36.278Z,101239.31
2022-10-07T19:37:03.324Z,101248.91
2022-10-07T19:39:37.089Z,101249.75
2022-10-07T19:42:04.690Z,101249.94
2022-10-07T19:44:32.483Z,101245.19
2022-10-07T19:47:00.989Z,101247.19
2022-10-07T19:49:33.953Z,101252.00
2022-10-07T19:52:00.756Z,101251.72
2022-10-07T19:54:35.927Z,101249.69
2022-10-07T19:57:03.285Z,101263.19
2022-10-07T19:59:34.042Z,101255.38
2022-10-07T20:02:01.352Z,101250.91
2022-10-07T20:04:28.422Z,101258.22
2022-10-07T20:06:59.319Z,101256.38
2022-10-07T20:09:31.524Z,101254.72
2022-10-07T20:11:58.620Z,101261.59
2022-10-07T20:14:25.420Z,101267.44
2022-10-07T20:16:54.547Z,101266.97
2022-10-07T20:19:31.922Z,101258.19
2022-10-07T20:22:01.295Z,101263.50
2022-10-07T20:24:28.225Z,101257.53
2022-10-07T20:26:55.137Z,101267.69
2022-10-07T20:29:27.282Z,101266.22
2022-10-07T20:31:54.139Z,101272.53
2022-10-07T20:34:22.564Z,101269.88
2022-10-07T20:36:50.626Z,101274.53
2022-10-07T20:39:38.549Z,101276.72
2022-10-07T20:42:21.758Z,101279.75
2022-10-07T20:44:49.780Z,101280.75
2022-10-07T20:47:18.122Z,101276.16
2022-10-07T20:49:45.369Z,101276.97
2022-10-07T20:52:16.999Z,101282.47
2022-10-07T20:54:45.170Z,101293.06
2022-10-07T20:57:17.288Z,101291.91
2022-10-07T20:59:44.790Z,101288.22
2022-10-07T21:02:13.751Z,101294.19
2022-10-07T21:04:41.355Z,101302.16
2022-10-07T21:07:08.839Z,101304.81
2022-10-07T21:09:40.048Z,101309.66
2022-10-07T21:12:13.979Z,101313.47
2022-10-07T21:14:43.262Z,101317.97
2022-10-07T21:17:11.171Z,101323.81
2022-10-07T21:19:38.043Z,101320.53
2022-10-07T21:22:06.159Z,101321.97
2022-10-07T21:24:36.325Z,101327.94
2022-10-07T21:27:05.188Z,101327.13
2022-10-07T21:29:36.424Z,101318.69
2022-10-07T21:32:06.586Z,101324.00
2022-10-07T21:34:33.409Z,101320.31
2022-10-07T21:37:00.347Z,101332.75
2022-10-07T21:39:31.321Z,101327.47
2022-10-07T21:41:58.899Z,101332.59
2022-10-07T21:44:27.069Z,101329.63
2022-10-07T21:46:53.821Z,101330.78
2022-10-07T21:49:20.690Z,101334.63
2022-10-07T21:51:47.571Z,101342.75
2022-10-07T21:54:14.581Z,101339.44
2022-10-07T21:56:43.767Z,101337.31
2022-10-07T21:59:10.608Z,101342.78
2022-10-07T22:01:38.318Z,101347.97
2022-10-07T22:04:05.371Z,101350.50
2022-10-07T22:06:51.263Z,101353.16
2022-10-07T22:09:30.212Z,101352.00
2022-10-07T22:11:57.855Z,101355.84
2022-10-07T22:14:24.677Z,101362.97
2022-10-07T22:16:51.530Z,101357.19
2022-10-07T22:19:18.274Z,101352.91
2022-10-07T22:21:45.984Z,101348.91
2022-10-07T22:24:14.213Z,101355.41
2022-10-07T22:26:46.107Z,101351.25
2022-10-07T22:29:15.594Z,101351.09
2022-10-07T22:31:42.457Z,101354.94
2022-10-07T22:34:29.309Z,101347.13
2022-10-07T22:36:58.225Z,101356.22
2022-10-07T22:39:32.817Z,101358.88
2022-10-07T22:42:01.359Z,101363.53
2022-10-07T22:44:28.428Z,101367.19
2022-10-07T22:46:56.232Z,101358.56
2022-10-07T22:49:30.022Z,101365.34
2022-10-07T22:51:59.091Z,101361.03
2022-10-07T22:54:26.233Z,101366.81
2022-10-07T22:56:53.011Z,101373.78
2022-10-07T22:59:29.607Z,101367.19
2022-10-07T23:01:56.407Z,101382.09
2022-10-07T23:04:23.201Z,101376.78
2022-10-07T23:06:49.992Z,101381.25
2022-10-07T23:09:16.732Z,101380.44
2022-10-07T23:11:43.603Z,101379.59
2022-10-07T23:14:10.470Z,101390.22
2022-10-07T23:16:37.272Z,101386.72
2022-10-07T23:19:04.047Z,101384.25
2022-10-07T23:21:34.592Z,101393.84
2022-10-07T23:24:06.842Z,101396.50
2022-10-07T23:26:34.773Z,101399.50
2022-10-07T23:29:02.525Z,101393.72
2022-10-07T23:31:32.057Z,101406.69
2022-10-07T23:34:00.347Z,101400.53
2022-10-07T23:36:27.965Z,101398.72
2022-10-07T23:38:55.116Z,101403.72
2022-10-07T23:41:27.063Z,101410.16
2022-10-07T23:44:04.970Z,101395.44
2022-10-07T23:46:34.052Z,101405.38
2022-10-07T23:49:01.613Z,101403.84
2022-10-07T23:51:29.192Z,101399.38
2022-10-07T23:53:57.041Z,101413.00
2022-10-07T23:56:24.101Z,101412.31
2022-10-07T23:58:51.120Z,101423.63
